Time;durP1;ratioP1;P1;durP2;ratioP2;P2;SDS_P1;SDS_P2;PMS_P1;PMS_P2;Temp;Humidity;BMP_temperature;BMP_pressure;BME280_temperature;BME280_humidity;BME280_pressure;Samples;Min_cycle;Max_cycle;Signal;HPM_P1;HPM_P2
2023/04/23 00:01:07;;;;;;;68.97;33.20;;;;;;;9.65;90.54;100320.13;5113832;28;20562;-69
2023/04/23 00:03:36;;;;;;;74.73;34.70;;;;;;;9.64;90.98;100305.91;5113668;28;20524;-69
2023/04/23 00:06:05;;;;;;;73.17;34.10;;;;;;;9.62;91.32;100307.00;5113368;28;20205;-68
2023/04/23 00:08:33;;;;;;;70.30;33.90;;;;;;;9.66;90.81;100303.13;5113898;28;20180;-68
2023/04/23 00:11:00;;;;;;;68.67;33.30;;;;;;;9.61;91.40;100302.63;5113847;28;20177;-68
2023/04/23 00:13:27;;;;;;;66.67;32.20;;;;;;;9.55;91.19;100304.78;5113491;28;20196;-68
2023/04/23 00:15:54;;;;;;;70.23;34.60;;;;;;;9.58;91.20;100303.72;5113512;28;20219;-69
2023/04/23 00:18:20;;;;;;;63.27;32.47;;;;;;;9.54;91.25;100304.91;5113205;28;20553;-69
2023/04/23 00:20:47;;;;;;;55.57;29.60;;;;;;;9.53;91.53;100309.41;5113184;28;20188;-69
2023/04/23 00:23:13;;;;;;;60.17;31.60;;;;;;;9.53;91.88;100303.19;5113675;28;20678;-69
2023/04/23 00:25:40;;;;;;;67.23;32.30;;;;;;;9.53;91.91;100300.53;5113396;28;20211;-69
2023/04/23 00:28:06;;;;;;;62.87;31.60;;;;;;;9.56;92.09;100303.81;5113198;28;20185;-69
2023/04/23 00:30:32;;;;;;;67.43;32.53;;;;;;;9.59;92.21;100303.56;5115646;28;20197;-69
2023/04/23 00:32:59;;;;;;;64.50;34.10;;;;;;;9.63;92.03;100298.88;5117040;28;20178;-69
2023/04/23 00:35:26;;;;;;;81.77;36.43;;;;;;;9.68;91.32;100299.38;5098420;28;20208;-69
2023/04/23 00:37:52;;;;;;;70.30;35.47;;;;;;;9.66;91.42;100295.94;5117011;28;20256;-69
2023/04/23 00:40:20;;;;;;;79.27;36.90;;;;;;;9.63;91.64;100295.34;5116615;28;20185;-69
2023/04/23 00:42:48;;;;;;;88.37;38.90;;;;;;;9.62;92.03;100304.31;5116457;28;20258;-69
2023/04/23 00:45:14;;;;;;;77.53;38.07;;;;;;;9.60;92.12;100304.44;5116760;28;20296;-69
2023/04/23 00:47:42;;;;;;;75.50;35.73;;;;;;;9.67;91.87;100304.81;5116489;28;20176;-69
2023/04/23 00:50:10;;;;;;;79.63;38.30;;;;;;;9.67;92.28;100299.47;5116707;28;20178;-69
2023/04/23 00:52:37;;;;;;;77.27;36.33;;;;;;;9.65;92.05;100307.63;5117026;28;20200;-69
2023/04/23 00:55:04;;;;;;;79.10;36.33;;;;;;;9.69;92.01;100295.72;5098116;28;20255;-69
2023/04/23 00:57:32;;;;;;;79.77;37.00;;;;;;;9.67;92.04;100296.78;5098340;28;20655;-69
2023/04/23 00:59:59;;;;;;;76.27;35.37;;;;;;;9.66;92.12;100290.59;5116551;28;20177;-69
2023/04/23 01:02:27;;;;;;;68.73;33.47;;;;;;;9.67;92.18;100296.78;5116758;28;20644;-69
2023/04/23 01:04:54;;;;;;;71.17;33.90;;;;;;;9.65;92.25;100296.06;5116247;28;20295;-69
2023/04/23 01:07:21;;;;;;;75.60;34.87;;;;;;;9.68;92.46;100293.19;5116764;28;20261;-69
2023/04/23 01:09:50;;;;;;;78.37;36.87;;;;;;;9.71;92.03;100287.59;5116395;28;20651;-69
2023/04/23 01:12:17;;;;;;;76.27;35.57;;;;;;;9.72;92.15;100286.59;5116011;28;20209;-68
2023/04/23 01:14:44;;;;;;;71.90;35.57;;;;;;;9.73;92.12;100286.50;5115948;28;20279;-69
2023/04/23 01:17:11;;;;;;;68.03;33.37;;;;;;;9.73;92.04;100291.84;5116192;28;20252;-69
2023/04/23 01:19:38;;;;;;;77.47;37.07;;;;;;;9.76;91.95;100283.59;5116422;28;20181;-69
2023/04/23 01:22:12;;;;;;;81.17;37.77;;;;;;;9.76;91.26;100285.41;5116035;28;20216;-69
2023/04/23 01:24:41;;;;;;;64.83;32.60;;;;;;;9.73;91.58;100282.97;5115959;28;20169;-69
2023/04/23 01:27:09;;;;;;;75.30;36.57;;;;;;;9.76;91.60;100283.59;5097437;28;20201;-69
2023/04/23 01:29:37;;;;;;;89.57;38.10;;;;;;;9.72;91.35;100286.59;5115669;28;20212;-69
2023/04/23 01:32:04;;;;;;;70.10;35.17;;;;;;;9.74;91.39;100285.53;5116149;28;20256;-69
2023/04/23 01:34:31;;;;;;;62.43;33.27;;;;;;;9.73;91.48;100285.66;5115501;28;20553;-69
2023/04/23 01:36:58;;;;;;;78.17;36.73;;;;;;;9.70;91.50;100283.22;5115855;28;20176;-69
2023/04/23 01:39:25;;;;;;;62.13;33.53;;;;;;;9.68;91.69;100282.47;5115826;28;20542;-69
2023/04/23 01:41:52;;;;;;;72.37;34.00;;;;;;;9.67;91.89;100284.28;5096046;28;20213;-69
2023/04/23 01:44:18;;;;;;;65.90;33.57;;;;;;;9.62;91.67;100283.78;5097116;28;20190;-69
2023/04/23 01:46:45;;;;;;;70.83;34.10;;;;;;;9.65;91.39;100278.22;5097070;28;20217;-69
2023/04/23 01:49:13;;;;;;;71.83;35.70;;;;;;;9.61;91.72;100279.41;5096988;28;20281;-69
2023/04/23 01:51:41;;;;;;;65.50;33.90;;;;;;;9.59;91.90;100276.84;5116014;28;20536;-69
2023/04/23 01:54:07;;;;;;;72.33;33.30;;;;;;;9.57;91.78;100273.41;5096948;28;20186;-69
2023/04/23 01:56:34;;;;;;;69.70;34.30;;;;;;;9.57;91.95;100269.91;5096852;28;20213;-69
2023/04/23 01:59:01;;;;;;;66.87;33.40;;;;;;;9.53;91.81;100279.16;5096830;28;20196;-69
2023/04/23 02:01:42;;;;;;;57.57;31.07;;;;;;;9.53;91.60;100271.13;5096703;28;20192;-69
2023/04/23 02:04:11;;;;;;;60.27;31.20;;;;;;;9.50;91.73;100282.03;5115240;28;20173;-69
2023/04/23 02:06:38;;;;;;;67.40;32.27;;;;;;;9.45;91.81;100278.84;5096575;28;20240;-69
2023/04/23 02:09:06;;;;;;;59.83;30.80;;;;;;;9.46;91.76;100285.91;5115355;28;20189;-69
2023/04/23 02:11:32;;;;;;;55.13;28.67;;;;;;;9.43;91.76;100286.13;5114854;28;20178;-69
2023/04/23 02:14:01;;;;;;;60.50;31.07;;;;;;;9.37;91.98;100282.94;5115108;28;20188;-69
2023/04/23 02:16:28;;;;;;;59.03;29.87;;;;;;;9.32;91.81;100274.41;5114898;28;20225;-69
2023/04/23 02:18:54;;;;;;;53.40;30.23;;;;;;;9.28;91.99;100272.91;5114724;28;20185;-69
2023/04/23 02:21:26;;;;;;;57.70;28.47;;;;;;;9.29;92.19;100268.44;5114915;28;20268;-69
2023/04/23 02:23:53;;;;;;;54.73;28.83;;;;;;;9.29;92.10;100271.09;5115199;28;20191;-69
2023/04/23 02:26:19;;;;;;;56.17;29.33;;;;;;;9.23;92.08;100267.06;5114416;28;20573;-69
2023/04/23 02:28:45;;;;;;;54.77;29.80;;;;;;;9.22;92.18;100267.19;5096431;28;20211;-69
2023/04/23 02:31:12;;;;;;;53.73;28.63;;;;;;;9.16;91.96;100266.66;5115030;28;20205;-69
2023/04/23 02:33:41;;;;;;;62.60;30.70;;;;;;;9.11;91.96;100260.81;5114662;28;20264;-69
2023/04/23 02:36:10;;;;;;;51.50;28.73;;;;;;;9.06;92.00;100262.13;5114291;28;20216;-69
2023/04/23 02:38:40;;;;;;;47.13;26.20;;;;;;;9.00;91.53;100260.72;5114344;28;20238;-69
2023/04/23 02:41:07;;;;;;;45.60;26.40;;;;;;;8.87;92.00;100259.94;5096048;28;20288;-69
2023/04/23 02:43:33;;;;;;;44.23;26.63;;;;;;;8.83;92.07;100253.94;5114208;28;20208;-69
2023/04/23 02:46:06;;;;;;;49.50;27.37;;;;;;;8.79;92.11;100256.94;5114235;28;20578;-69
2023/04/23 02:48:39;;;;;;;46.20;26.43;;;;;;;8.78;92.17;100260.59;5114220;28;20231;-69
2023/04/23 02:51:08;;;;;;;50.80;28.43;;;;;;;8.78;92.23;100263.25;5114576;28;20603;-69
2023/04/23 02:53:35;;;;;;;42.63;25.50;;;;;;;8.70;92.35;100261.16;5095610;28;20224;-68
2023/04/23 02:56:01;;;;;;;38.10;24.07;;;;;;;8.63;91.96;100259.88;5114098;28;20296;-69
2023/04/23 02:58:29;;;;;;;56.37;28.80;;;;;;;8.57;92.38;100258.50;5095769;28;20280;-69
2023/04/23 03:00:58;;;;;;;52.93;26.20;;;;;;;8.55;92.43;100251.53;5096059;28;20300;-69
2023/04/23 03:03:30;;;;;;;42.87;23.87;;;;;;;8.45;92.37;100256.69;5095586;28;20691;-69
2023/04/23 03:05:59;;;;;;;46.37;26.33;;;;;;;8.42;92.57;100256.91;5095971;28;20209;-69
2023/04/23 03:08:26;;;;;;;42.93;24.57;;;;;;;8.36;92.32;100266.19;5095635;28;20542;-69
2023/04/23 03:10:53;;;;;;;43.23;26.87;;;;;;;8.32;92.49;100257.53;5095613;28;20600;-69
2023/04/23 03:13:20;;;;;;;44.43;26.70;;;;;;;8.34;93.02;100259.25;5095614;28;20220;-69
2023/04/23 03:15:47;;;;;;;53.77;28.07;;;;;;;8.35;92.90;100260.94;5114393;28;20558;-69
2023/04/23 03:18:14;;;;;;;48.07;27.77;;;;;;;8.35;93.12;100258.28;5113783;28;20185;-69
2023/04/23 03:20:41;;;;;;;46.70;27.93;;;;;;;8.32;93.50;100254.00;5095827;28;20721;-69
2023/04/23 03:23:08;;;;;;;43.80;26.60;;;;;;;8.31;93.18;100262.97;5113738;28;20250;-69
2023/04/23 03:25:34;;;;;;;47.17;26.07;;;;;;;8.29;93.93;100255.06;5095431;28;20650;-69
2023/04/23 03:28:01;;;;;;;47.40;27.83;;;;;;;8.29;93.93;100251.56;5095401;28;20671;-69
2023/04/23 03:30:28;;;;;;;50.63;28.20;;;;;;;8.30;94.13;100248.75;5095427;28;20530;-69
2023/04/23 03:32:55;;;;;;;47.83;27.50;;;;;;;8.33;94.49;100239.69;5113641;28;20284;-69
2023/04/23 03:35:23;;;;;;;53.47;29.30;;;;;;;8.35;94.69;100242.25;5095351;28;20232;-69
2023/04/23 03:37:51;;;;;;;62.10;29.77;;;;;;;8.43;94.51;100247.97;5096197;28;20230;-69
2023/04/23 03:40:19;;;;;;;44.03;26.23;;;;;;;8.40;94.86;100241.00;5095312;28;20204;-69
2023/04/23 03:42:48;;;;;;;45.77;26.13;;;;;;;8.45;95.05;100246.88;5096167;28;20227;-69
2023/04/23 03:45:17;;;;;;;51.60;28.17;;;;;;;8.48;95.10;100246.66;5095451;28;20209;-69
2023/04/23 03:47:44;;;;;;;54.37;29.70;;;;;;;8.50;95.41;100246.56;5095199;28;20203;-68
2023/04/23 03:50:16;;;;;;;59.67;31.07;;;;;;;8.53;95.26;100238.34;5096401;28;20558;-68
2023/04/23 03:52:44;;;;;;;57.40;30.43;;;;;;;8.58;95.42;100243.34;5095480;28;20281;-68
2023/04/23 03:55:19;;;;;;;56.80;29.80;;;;;;;8.60;95.50;100236.09;5095630;28;20215;-69
2023/04/23 03:57:46;;;;;;;50.23;27.87;;;;;;;8.56;95.38;100231.91;5095195;28;20260;-68
2023/04/23 04:00:21;;;;;;;46.87;28.27;;;;;;;8.55;95.48;100224.84;5095229;28;20188;-68
2023/04/23 04:02:48;;;;;;;48.93;28.70;;;;;;;8.52;95.39;100224.13;5113292;28;20205;-68
2023/04/23 04:05:15;;;;;;;51.20;27.13;;;;;;;8.52;95.58;100225.94;5114945;28;20212;-69
2023/04/23 04:07:43;;;;;;;49.13;29.17;;;;;;;8.51;95.83;100224.25;5099022;28;20234;-68
2023/04/23 04:10:10;;;;;;;50.00;27.97;;;;;;;8.53;96.03;100219.66;5117267;28;20190;-68
2023/04/23 04:12:36;;;;;;;51.57;29.93;;;;;;;8.56;96.08;100215.91;5098899;28;20220;-68
2023/04/23 04:15:04;;;;;;;57.20;30.00;;;;;;;8.50;95.82;100215.38;5117348;28;20295;-69
2023/04/23 04:17:30;;;;;;;49.77;29.03;;;;;;;8.47;96.12;100218.25;5117102;28;20677;-69
2023/04/23 04:19:56;;;;;;;50.83;28.90;;;;;;;8.47;96.01;100212.06;5117064;28;20226;-69
2023/04/23 04:22:23;;;;;;;51.80;28.57;;;;;;;8.46;95.84;100202.38;5116977;28;20201;-69
2023/04/23 04:24:51;;;;;;;48.23;27.13;;;;;;;8.44;95.77;100218.47;5117111;28;20201;-69
2023/04/23 04:27:17;;;;;;;52.27;30.43;;;;;;;8.46;95.62;100216.56;5116896;28;20193;-69
2023/04/23 04:29:44;;;;;;;52.20;28.27;;;;;;;8.39;95.81;100215.25;5117187;28;20558;-69
2023/04/23 04:32:12;;;;;;;48.07;27.07;;;;;;;8.30;96.03;100210.56;5116804;28;20185;-68
2023/04/23 04:34:38;;;;;;;53.40;29.60;;;;;;;8.27;96.15;100202.78;5117200;28;20177;-69
2023/04/23 04:37:05;;;;;;;56.63;28.37;;;;;;;8.25;96.12;100202.03;5117016;28;20192;-69
2023/04/23 04:39:32;;;;;;;56.63;27.13;;;;;;;8.22;95.90;100210.28;5116667;28;20260;-69
2023/04/23 04:41:58;;;;;;;52.27;28.07;;;;;;;8.26;96.35;100209.94;5116590;28;20655;-69
2023/04/23 04:44:25;;;;;;;48.77;29.23;;;;;;;8.23;96.05;100201.28;5116420;28;20212;-69
2023/04/23 04:46:51;;;;;;;53.73;28.13;;;;;;;8.25;96.28;100205.56;5117120;28;20263;-69
2023/04/23 04:49:18;;;;;;;47.87;27.43;;;;;;;8.22;95.97;100216.44;5116480;28;20264;-69
2023/04/23 04:51:44;;;;;;;62.83;28.00;;;;;;;8.24;96.20;100217.19;5116730;28;20244;-69
2023/04/23 04:54:11;;;;;;;50.33;28.20;;;;;;;8.23;96.07;100211.97;5116394;28;20219;-69
2023/04/23 04:56:37;;;;;;;52.47;29.43;;;;;;;8.23;96.38;100210.13;5116270;28;20293;-69
2023/04/23 04:59:04;;;;;;;52.43;28.37;;;;;;;8.27;96.44;100213.47;5116306;28;20271;-69
2023/04/23 05:01:32;;;;;;;47.53;27.90;;;;;;;8.26;96.06;100214.41;5116263;28;20189;-68
2023/04/23 05:03:58;;;;;;;48.20;26.53;;;;;;;8.23;96.46;100214.63;5116111;28;20301;-68
2023/04/23 05:06:27;;;;;;;41.83;25.33;;;;;;;8.24;96.48;100217.19;5116350;28;20258;-68
2023/04/23 05:08:53;;;;;;;53.13;27.07;;;;;;;8.29;96.56;100225.72;5116134;28;20208;-68
2023/04/23 05:11:20;;;;;;;49.07;27.23;;;;;;;8.30;96.61;100227.41;5116047;28;20195;-68
2023/04/23 05:13:47;;;;;;;45.33;25.73;;;;;;;8.30;96.56;100229.25;5116007;28;20224;-68
2023/04/23 05:16:13;;;;;;;58.17;30.67;;;;;;;8.31;96.80;100228.31;5115958;28;20280;-68
2023/04/23 05:18:41;;;;;;;48.60;27.73;;;;;;;8.38;96.72;100229.56;5115894;28;20192;-68
2023/04/23 05:21:07;;;;;;;53.93;29.23;;;;;;;8.46;96.86;100237.06;5115871;28;20257;-68
2023/04/23 05:23:35;;;;;;;57.40;27.87;;;;;;;8.52;97.43;100234.81;5115740;28;20747;-68
2023/04/23 05:26:02;;;;;;;47.43;27.33;;;;;;;8.61;97.38;100232.44;5115805;28;20225;-69
2023/04/23 05:28:29;;;;;;;49.93;27.57;;;;;;;8.69;97.23;100236.28;5115877;28;20250;-69
2023/04/23 05:30:57;;;;;;;48.93;29.07;;;;;;;8.79;97.64;100228.44;5115697;28;20283;-69
2023/04/23 05:33:24;;;;;;;52.93;28.63;;;;;;;8.92;97.33;100231.06;5115642;28;20203;-69
2023/04/23 05:35:58;;;;;;;57.50;29.60;;;;;;;9.15;98.45;100226.72;5115683;28;20227;-69
2023/04/23 05:38:25;;;;;;;53.77;29.07;;;;;;;9.31;98.58;100218.41;5115553;28;20185;-69
2023/04/23 05:40:51;;;;;;;56.50;31.10;;;;;;;9.50;98.59;100226.72;5116313;28;20519;-69
2023/04/23 05:43:18;;;;;;;64.53;31.43;;;;;;;9.66;98.77;100222.91;5115650;28;20209;-69
2023/04/23 05:45:44;;;;;;;52.63;30.03;;;;;;;9.74;98.60;100224.00;5097070;28;20208;-69
2023/04/23 05:48:10;;;;;;;49.43;28.33;;;;;;;9.84;97.95;100226.88;5115897;28;20211;-69
2023/04/23 05:50:37;;;;;;;47.77;27.10;;;;;;;9.92;97.49;100216.41;5115298;28;20181;-69
2023/04/23 05:53:03;;;;;;;48.90;28.83;;;;;;;9.97;97.53;100216.91;5115642;28;20607;-69
2023/04/23 05:55:30;;;;;;;43.57;25.00;;;;;;;10.02;97.40;100221.91;5115155;28;20212;-69
2023/04/23 05:57:56;;;;;;;41.47;26.33;;;;;;;10.10;97.24;100218.63;5115151;28;20712;-69
2023/04/23 06:00:22;;;;;;;41.53;25.47;;;;;;;10.18;97.15;100218.88;5115381;28;20264;-69
2023/04/23 06:02:49;;;;;;;35.33;25.20;;;;;;;10.18;96.86;100214.38;5114964;28;20208;-69
2023/04/23 06:05:15;;;;;;;35.77;25.17;;;;;;;10.28;96.31;100202.97;5115194;28;20212;-69
2023/04/23 06:07:42;;;;;;;34.40;23.67;;;;;;;10.28;95.67;100214.53;5115277;28;20199;-69
2023/04/23 06:10:09;;;;;;;25.47;20.70;;;;;;;10.38;94.91;100206.63;5114982;28;20204;-69
2023/04/23 06:12:40;;;;;;;26.40;20.63;;;;;;;10.41;93.96;100212.63;5115146;28;20185;-69
2023/04/23 06:15:08;;;;;;;25.83;20.20;;;;;;;10.53;93.81;100212.59;5115032;28;20205;-69
2023/04/23 06:17:35;;;;;;;30.50;20.10;;;;;;;10.54;93.45;100216.97;5114786;28;20220;-69
2023/04/23 06:20:01;;;;;;;27.53;19.47;;;;;;;10.64;92.50;100215.25;5114721;28;20659;-69
2023/04/23 06:22:28;;;;;;;23.60;19.17;;;;;;;10.67;92.07;100209.66;5096558;28;20188;-69
2023/04/23 06:24:54;;;;;;;24.47;18.57;;;;;;;10.73;91.41;100209.16;5114862;28;20254;-69
2023/04/23 06:27:21;;;;;;;22.67;18.80;;;;;;;10.77;91.39;100215.09;5113893;28;20543;-69
2023/04/23 06:29:50;;;;;;;21.97;18.17;;;;;;;10.80;90.94;100212.22;5097137;28;20224;-69
2023/04/23 06:32:17;;;;;;;21.27;18.10;;;;;;;10.85;91.53;100213.53;5114493;28;20200;-69
2023/04/23 06:34:46;;;;;;;20.67;18.03;;;;;;;10.91;90.98;100211.31;5114402;28;20225;-70
2023/04/23 06:37:27;;;;;;;19.00;17.00;;;;;;;10.95;90.23;100210.09;5114706;28;20184;-69
2023/04/23 06:39:55;;;;;;;20.50;17.50;;;;;;;10.95;90.75;100210.94;5114338;28;20192;-69
2023/04/23 06:42:21;;;;;;;16.73;14.93;;;;;;;11.02;90.97;100211.31;5114294;28;20192;-69
2023/04/23 06:45:03;;;;;;;18.83;16.93;;;;;;;11.09;90.62;100209.81;5096240;28;20209;-70
2023/04/23 06:47:31;;;;;;;17.90;16.13;;;;;;;11.19;90.74;100215.28;5114520;28;20247;-69
2023/04/23 06:49:59;;;;;;;17.90;16.17;;;;;;;11.29;90.61;100210.84;5114119;28;20183;-69
2023/04/23 06:52:25;;;;;;;16.90;15.20;;;;;;;11.35;88.90;100207.66;5114159;28;20189;-69
2023/04/23 06:54:52;;;;;;;18.07;15.73;;;;;;;11.41;88.97;100211.66;5114064;28;20201;-69
2023/04/23 06:57:19;;;;;;;16.73;15.37;;;;;;;11.54;88.42;100206.97;5114035;28;20185;-69
2023/04/23 06:59:45;;;;;;;16.70;15.20;;;;;;;11.61;87.75;100204.59;5114054;28;20553;-69
2023/04/23 07:02:12;;;;;;;20.00;14.77;;;;;;;11.69;88.01;100204.81;5095819;28;20229;-69
2023/04/23 07:04:39;;;;;;;17.17;15.50;;;;;;;11.77;87.24;100204.16;5113813;28;20212;-70
2023/04/23 07:07:06;;;;;;;17.07;15.17;;;;;;;11.78;87.10;100193.31;5113943;28;20643;-70
2023/04/23 07:09:32;;;;;;;19.50;15.33;;;;;;;11.83;86.92;100196.44;5113888;28;20655;-69
2023/04/23 07:12:00;;;;;;;17.53;15.73;;;;;;;11.88;86.47;100199.59;5113863;28;20238;-69
2023/04/23 07:14:26;;;;;;;16.57;14.87;;;;;;;11.95;85.81;100199.06;5113952;28;20193;-70
2023/04/23 07:16:53;;;;;;;15.17;13.77;;;;;;;12.00;86.19;100200.38;5114367;28;20189;-69
2023/04/23 07:19:19;;;;;;;14.67;13.47;;;;;;;12.10;85.49;100195.06;5113802;28;20189;-69
2023/04/23 07:21:46;;;;;;;14.37;13.30;;;;;;;12.15;85.50;100179.41;5113743;28;20184;-69
2023/04/23 07:24:12;;;;;;;14.57;13.37;;;;;;;12.18;85.28;100186.34;5113656;28;20205;-69
2023/04/23 07:26:38;;;;;;;13.67;12.57;;;;;;;12.20;84.77;100185.22;5113475;28;20208;-69
2023/04/23 07:29:06;;;;;;;12.73;11.70;;;;;;;12.20;83.33;100185.22;5113985;28;20529;-69
2023/04/23 07:31:33;;;;;;;12.73;11.88;;;;;;;12.39;84.33;100180.94;5112639;28;20523;-69
2023/04/23 07:34:00;;;;;;;12.97;11.70;;;;;;;12.57;82.31;100184.69;5114192;28;20177;-69
2023/04/23 07:36:26;;;;;;;13.40;12.07;;;;;;;12.78;81.64;100181.88;5113553;28;20295;-69
2023/04/23 07:38:53;;;;;;;11.77;10.93;;;;;;;13.03;81.02;100185.06;5113884;28;20191;-69
2023/04/23 07:41:19;;;;;;;11.67;10.57;;;;;;;13.15;80.09;100170.50;5117545;28;20558;-69
2023/04/23 07:43:46;;;;;;;11.57;10.50;;;;;;;13.42;80.39;100175.19;5117638;28;20219;-69
2023/04/23 07:46:12;;;;;;;12.70;11.53;;;;;;;13.59;80.10;100171.78;5117654;28;20213;-69
2023/04/23 07:48:38;;;;;;;12.17;11.40;;;;;;;13.76;78.94;100163.94;5117643;28;20238;-69
2023/04/23 07:51:05;;;;;;;10.77;9.93;;;;;;;13.92;77.92;100166.91;5117626;28;20227;-69
2023/04/23 07:53:32;;;;;;;10.70;10.20;;;;;;;14.01;76.98;100168.72;5117584;28;20655;-69
2023/04/23 07:55:59;;;;;;;10.20;9.67;;;;;;;14.18;76.11;100159.03;5117421;28;20208;-69
2023/04/23 07:58:25;;;;;;;8.60;8.10;;;;;;;14.26;75.21;100169.91;5117467;28;20221;-69
2023/04/23 08:00:51;;;;;;;9.17;8.47;;;;;;;14.28;74.48;100177.00;5117682;28;20185;-69
2023/04/23 08:03:18;;;;;;;8.83;8.23;;;;;;;14.23;73.66;100169.34;5117314;28;20247;-69
2023/04/23 08:05:45;;;;;;;9.17;7.77;;;;;;;14.33;74.60;100169.31;5117478;28;20219;-69
2023/04/23 08:08:12;;;;;;;8.63;8.17;;;;;;;14.45;73.81;100170.81;5117593;28;20608;-69
2023/04/23 08:10:39;;;;;;;8.03;7.43;;;;;;;14.37;72.24;100157.25;5098950;28;20196;-69
2023/04/23 08:13:05;;;;;;;8.60;8.27;;;;;;;14.37;72.21;100160.78;5117739;28;20191;-69
2023/04/23 08:15:32;;;;;;;7.93;7.37;;;;;;;14.50;72.14;100165.81;5117087;28;20220;-69
2023/04/23 08:17:58;;;;;;;9.10;8.23;;;;;;;14.68;72.71;100158.66;5117065;28;20200;-68
2023/04/23 08:20:25;;;;;;;7.80;7.50;;;;;;;14.71;71.41;100154.81;5117408;28;20173;-69
2023/04/23 08:22:52;;;;;;;7.57;6.90;;;;;;;14.87;71.35;100157.72;5117035;28;20185;-69
2023/04/23 08:25:19;;;;;;;8.47;7.77;;;;;;;14.91;69.93;100166.31;5117637;28;20627;-69
2023/04/23 08:27:46;;;;;;;7.43;7.03;;;;;;;14.96;70.20;100144.28;5117101;28;20184;-69
2023/04/23 08:30:13;;;;;;;6.97;6.57;;;;;;;15.05;70.18;100143.38;5117168;28;20189;-69
2023/04/23 08:32:39;;;;;;;7.37;6.83;;;;;;;15.09;68.93;100147.47;5116796;28;20195;-69
2023/04/23 08:35:07;;;;;;;12.13;6.47;;;;;;;15.24;69.83;100145.06;5116782;28;20200;-69
2023/04/23 08:37:33;;;;;;;12.63;7.40;;;;;;;15.30;69.55;100148.00;5116927;28;20655;-69
2023/04/23 08:40:00;;;;;;;7.93;7.43;;;;;;;15.43;69.14;100152.16;5116688;28;20189;-69
2023/04/23 08:42:35;;;;;;;6.97;6.77;;;;;;;15.60;68.64;100142.34;5116694;28;20674;-69
2023/04/23 08:45:03;;;;;;;8.20;7.43;;;;;;;15.64;67.30;100144.56;5116668;28;20224;-69
2023/04/23 08:47:31;;;;;;;6.30;6.03;;;;;;;15.82;68.54;100136.44;5116489;28;20189;-68
2023/04/23 08:49:58;;;;;;;9.93;7.13;;;;;;;16.00;67.69;100133.69;5116294;28;20201;-69
2023/04/23 08:52:27;;;;;;;6.83;6.43;;;;;;;15.99;66.37;100142.78;5116099;28;20187;-69
2023/04/23 08:55:00;;;;;;;7.23;6.63;;;;;;;15.96;65.81;100151.22;5116882;28;20208;-69
2023/04/23 08:57:26;;;;;;;7.40;6.80;;;;;;;16.11;68.03;100143.38;5116295;28;20668;-69
2023/04/23 08:59:54;;;;;;;6.53;6.03;;;;;;;16.05;65.51;100144.84;5116348;28;20262;-69
2023/04/23 09:02:21;;;;;;;5.80;5.47;;;;;;;16.23;65.61;100147.47;5116249;28;20188;-68
2023/04/23 09:04:48;;;;;;;6.10;5.50;;;;;;;16.32;64.66;100154.63;5116037;28;20213;-69
2023/04/23 09:07:17;;;;;;;5.77;5.53;;;;;;;16.31;64.92;100150.22;5116143;28;20185;-69
2023/04/23 09:09:44;;;;;;;6.77;4.83;;;;;;;16.44;64.76;100146.22;5116422;28;20268;-69
2023/04/23 09:12:10;;;;;;;6.23;5.93;;;;;;;16.13;64.61;100144.91;5116349;28;20213;-69
2023/04/23 09:14:37;;;;;;;6.10;5.50;;;;;;;16.16;64.05;100144.59;5115928;28;20181;-69
2023/04/23 09:17:03;;;;;;;6.00;5.47;;;;;;;16.21;62.35;100141.41;5115990;28;20207;-69
2023/04/23 09:19:31;;;;;;;5.03;4.40;;;;;;;16.25;64.62;100133.81;5115905;28;20284;-69
2023/04/23 09:21:59;;;;;;;6.60;6.10;;;;;;;16.34;63.81;100139.09;5116122;28;20189;-69
2023/04/23 09:24:27;;;;;;;4.90;4.60;;;;;;;16.08;62.29;100130.19;5115667;28;20631;-68
2023/04/23 09:26:53;;;;;;;5.10;4.67;;;;;;;15.94;62.27;100123.53;5097506;28;20205;-68
2023/04/23 09:29:22;;;;;;;4.57;3.73;;;;;;;15.86;63.05;100128.88;5116034;28;20174;-68
2023/04/23 09:31:51;;;;;;;4.80;4.37;;;;;;;15.63;63.50;100126.66;5115706;28;20540;-68
2023/04/23 09:34:19;;;;;;;5.23;5.03;;;;;;;15.58;64.17;100128.16;5115669;28;20193;-68
2023/04/23 09:36:50;;;;;;;5.17;4.97;;;;;;;15.50;64.82;100118.97;5115598;28;20598;-69
2023/04/23 09:39:20;;;;;;;5.40;4.90;;;;;;;15.39;63.08;100127.31;5115852;28;20184;-69
2023/04/23 09:41:47;;;;;;;5.63;5.23;;;;;;;15.44;64.71;100119.63;5116079;28;20608;-68
2023/04/23 09:44:18;;;;;;;6.23;5.83;;;;;;;15.69;63.57;100120.63;5115954;28;20216;-68
2023/04/23 09:46:44;;;;;;;8.17;5.77;;;;;;;16.15;64.96;100110.47;5115567;28;20296;-69
2023/04/23 09:49:12;;;;;;;5.27;4.87;;;;;;;16.53;63.37;100118.22;5115642;28;20517;-68
2023/04/23 09:51:40;;;;;;;5.03;4.93;;;;;;;16.64;62.10;100117.06;5115560;28;20199;-69
2023/04/23 09:54:23;;;;;;;6.50;5.90;;;;;;;16.70;61.82;100111.00;5115261;28;20189;-68
2023/04/23 09:56:52;;;;;;;9.13;6.10;;;;;;;16.72;60.58;100109.81;5115419;28;20204;-68
2023/04/23 09:59:19;;;;;;;5.33;5.23;;;;;;;16.90;60.48;100109.72;5115642;28;20197;-68
2023/04/23 10:01:55;;;;;;;5.50;5.40;;;;;;;16.97;58.35;100105.31;5114502;28;20285;-68
2023/04/23 10:04:24;;;;;;;5.63;5.17;;;;;;;17.18;59.21;100115.66;5114561;28;20634;-68
2023/04/23 10:06:58;;;;;;;6.70;6.30;;;;;;;17.47;56.35;100111.59;5114985;28;20713;-68
2023/04/23 10:09:45;;;;;;;6.43;6.27;;;;;;;17.37;56.43;100109.06;5115218;28;20178;-68
2023/04/23 10:12:12;;;;;;;5.90;5.80;;;;;;;17.55;59.27;100106.19;5114886;28;20677;-68
2023/04/23 10:14:59;;;;;;;4.53;4.43;;;;;;;17.44;55.76;100104.69;5115297;28;20201;-68
2023/04/23 10:17:26;;;;;;;4.43;4.23;;;;;;;17.36;58.41;100098.44;5115110;28;20598;-68
2023/04/23 10:19:54;;;;;;;4.63;4.33;;;;;;;17.44;57.18;100098.41;5115034;28;20192;-69
2023/04/23 10:22:21;;;;;;;5.33;4.60;;;;;;;17.50;54.70;100100.44;5115260;28;20242;-68
2023/04/23 10:24:54;;;;;;;4.27;4.13;;;;;;;17.44;55.07;100101.97;5114785;28;20224;-68
2023/04/23 10:27:25;;;;;;;4.37;4.07;;;;;;;17.44;55.82;100096.56;5114648;28;20237;-69
2023/04/23 10:30:10;;;;;;;4.27;4.17;;;;;;;17.35;53.85;100096.72;5115155;28;20170;-68
2023/04/23 10:32:37;;;;;;;5.73;4.13;;;;;;;17.47;56.91;100098.06;5114522;28;20272;-69
2023/04/23 10:35:06;;;;;;;4.57;4.23;;;;;;;17.26;55.82;100090.47;5114887;28;20554;-69
2023/04/23 10:37:34;;;;;;;4.63;4.43;;;;;;;17.27;56.79;100088.63;5114448;28;20184;-68
2023/04/23 10:40:28;;;;;;;5.70;4.80;;;;;;;17.17;56.21;100077.97;5114476;28;20589;-68
2023/04/23 10:42:55;;;;;;;4.53;4.33;;;;;;;17.23;57.33;100072.69;5104820;28;20532;-69
2023/04/23 10:45:21;;;;;;;5.43;5.07;;;;;;;17.37;57.66;100060.34;5114078;28;20299;-69
2023/04/23 10:47:54;;;;;;;4.80;4.70;;;;;;;17.40;58.15;100060.00;5114769;28;20544;-68
2023/04/23 10:50:35;;;;;;;5.53;5.10;;;;;;;17.67;58.07;100059.78;5114197;28;20279;-68
2023/04/23 10:53:02;;;;;;;5.43;5.23;;;;;;;17.79;56.70;100061.09;5114426;28;20615;-68
2023/04/23 10:55:30;;;;;;;3.60;3.60;;;;;;;17.61;53.33;100048.63;5114072;28;20573;-69
2023/04/23 10:58:02;;;;;;;3.97;3.87;;;;;;;17.65;52.75;100057.28;5114293;28;20687;-69
2023/04/23 11:00:44;;;;;;;3.70;3.70;;;;;;;17.70;52.15;100056.75;5114340;28;20181;-68
2023/04/23 11:03:41;;;;;;;4.53;4.37;;;;;;;17.69;52.66;100060.47;5114857;28;20569;-69
2023/04/23 11:06:19;;;;;;;4.07;3.87;;;;;;;17.63;52.71;100051.19;5114240;28;20197;-68
2023/04/23 11:08:52;;;;;;;4.33;3.73;;;;;;;17.53;52.76;100061.38;5114289;28;20578;-69
2023/04/23 11:11:38;;;;;;;3.93;3.63;;;;;;;17.34;51.94;100049.88;5113888;28;20189;-68
2023/04/23 11:14:14;;;;;;;4.00;3.77;;;;;;;17.35;52.63;100051.56;5113879;28;20620;-69
2023/04/23 11:16:41;;;;;;;3.70;3.50;;;;;;;17.33;53.76;100050.88;5113743;28;20197;-68
2023/04/23 11:19:11;;;;;;;5.03;4.73;;;;;;;17.30;53.19;100039.56;5114126;28;20524;-68
2023/04/23 11:21:57;;;;;;;3.40;3.30;;;;;;;17.21;54.27;100052.25;5114344;28;20177;-69
2023/04/23 11:24:25;;;;;;;3.67;3.57;;;;;;;16.95;53.55;100045.16;5113876;28;20208;-69